Adrian, North Dakota
Current Conditions -  °F | °C
As of 4:56 PM on Thursday 30 Oct 2014 (Local Time) from KJMS Reporting Station
Broken Clouds Broken Clouds  
Wind Chill: -6°   Ceiling: 2800
Heat Index:   Visibility: 10mi
Dew Point: -6°   Wind: 21mph
Humidity: 64%   Direction: 10°N
Pressure: 30.42"   Gusts: 31mph
Location:  46.6526°N, 98.6214°W
Report Text: KJMS 302156Z AUTO 01018G27KT 10SM BKN028 01/M06 A3042 RMK AO2 PK WND 01027/2149 SLP321 T00061056
Loading
Personal Weather Stations






























Interactive Weather Map
Tropical Storm Tracking
New forecast layout! Learn more

10-Day Weather Forecast

Advertisements
Track Severe Weather on mobile